createdAt,value
2022-12-26T00:00:12.120Z,15.20
2022-12-26T00:03:00.180Z,14.00
2022-12-26T00:05:28.363Z,14.20
2022-12-26T00:07:56.357Z,14.10
2022-12-26T00:10:24.431Z,15.00
2022-12-26T00:12:52.387Z,14.40
2022-12-26T00:15:20.365Z,13.80
2022-12-26T00:17:48.330Z,14.10
2022-12-26T00:20:16.669Z,14.20
2022-12-26T00:22:45.191Z,14.30
2022-12-26T00:25:13.981Z,14.20
2022-12-26T00:27:41.941Z,14.20
2022-12-26T00:30:10.423Z,14.20
2022-12-26T00:32:38.668Z,13.70
2022-12-26T00:35:06.863Z,13.50
2022-12-26T00:37:34.632Z,12.20
2022-12-26T00:40:02.707Z,12.80
2022-12-26T00:42:31.678Z,13.40
2022-12-26T00:44:59.659Z,11.60
2022-12-26T00:47:27.840Z,12.50
2022-12-26T00:50:14.212Z,12.50
2022-12-26T00:52:43.713Z,11.90
2022-12-26T00:55:11.708Z,12.00
2022-12-26T00:57:39.793Z,11.80
2022-12-26T01:00:08.273Z,11.60
2022-12-26T01:02:40.246Z,11.60
2022-12-26T01:05:09.728Z,12.10
2022-12-26T01:08:19.749Z,11.80
2022-12-26T01:10:28.011Z,12.40
2022-12-26T01:12:56.064Z,13.00
2022-12-26T01:15:24.021Z,11.20
2022-12-26T01:17:52.221Z,11.90
2022-12-26T01:20:20.413Z,12.70
2022-12-26T01:22:48.475Z,11.00
2022-12-26T01:25:16.394Z,11.80
2022-12-26T01:27:46.076Z,11.50
2022-12-26T01:30:14.275Z,11.10
2022-12-26T01:32:42.928Z,11.70
2022-12-26T01:35:11.457Z,12.10
2022-12-26T01:37:39.332Z,11.00
2022-12-26T01:40:07.757Z,12.20
2022-12-26T01:42:37.308Z,11.30
2022-12-26T01:45:05.169Z,11.80
2022-12-26T01:47:38.046Z,11.00
2022-12-26T01:50:07.357Z,11.60
2022-12-26T01:52:42.283Z,11.70
2022-12-26T01:55:11.649Z,11.60
2022-12-26T01:57:44.371Z,11.90
2022-12-26T02:00:12.791Z,11.60
2022-12-26T02:03:00.429Z,11.40
2022-12-26T02:05:36.331Z,11.60
2022-12-26T02:08:15.964Z,11.60
2022-12-26T02:10:47.895Z,11.20
2022-12-26T02:13:17.540Z,11.00
2022-12-26T02:15:46.015Z,10.80
2022-12-26T02:18:14.187Z,10.80
2022-12-26T02:20:48.264Z,11.60
2022-12-26T02:23:19.136Z,10.80
2022-12-26T02:25:53.255Z,10.90
2022-12-26T02:28:40.667Z,11.10
2022-12-26T02:31:32.439Z,10.40
2022-12-26T02:34:09.579Z,10.80
2022-12-26T02:36:44.108Z,10.40
2022-12-26T02:39:44.238Z,11.30
2022-12-26T02:42:14.867Z,11.50
2022-12-26T02:45:01.866Z,11.30
2022-12-26T02:47:41.523Z,11.30
2022-12-26T02:50:47.163Z,11.50
2022-12-26T02:53:45.650Z,10.50
2022-12-26T02:56:52.771Z,10.90
2022-12-26T03:00:15.294Z,11.30
2022-12-26T03:03:05.043Z,10.70
2022-12-26T03:06:04.444Z,11.30
2022-12-26T03:08:56.128Z,10.20
2022-12-26T03:11:45.329Z,10.10
2022-12-26T03:14:22.374Z,9.80
2022-12-26T03:19:58.361Z,9.80
2022-12-26T03:22:31.916Z,9.80
2022-12-26T03:25:19.612Z,9.70
2022-12-26T03:27:47.582Z,9.90
2022-12-26T03:30:34.347Z,9.60
2022-12-26T03:33:02.090Z,10.40
2022-12-26T03:35:31.681Z,11.00
2022-12-26T03:38:01.457Z,10.10
2022-12-26T03:40:56.293Z,10.40
2022-12-26T03:43:42.871Z,10.50
2022-12-26T03:46:35.702Z,10.90
2022-12-26T03:49:28.611Z,11.20
2022-12-26T03:52:28.724Z,11.10
2022-12-26T03:55:20.073Z,11.10
2022-12-26T03:58:09.267Z,10.40
2022-12-26T04:00:56.777Z,11.30
2022-12-26T04:03:57.819Z,10.90
2022-12-26T04:06:47.355Z,10.50
2022-12-26T04:09:37.513Z,11.50
2022-12-26T04:12:25.660Z,10.20
2022-12-26T04:15:15.563Z,11.00
2022-12-26T04:18:05.256Z,10.90
2022-12-26T04:20:49.024Z,11.10
2022-12-26T04:23:35.789Z,10.90
2022-12-26T04:26:44.654Z,11.00
2022-12-26T04:29:31.826Z,10.80
2022-12-26T04:32:30.890Z,10.70
2022-12-26T04:35:34.733Z,10.80
2022-12-26T04:38:22.730Z,10.10
2022-12-26T04:41:13.295Z,9.70
2022-12-26T04:44:00.803Z,10.10
2022-12-26T04:46:30.725Z,10.10
2022-12-26T04:49:18.747Z,10.50
2022-12-26T04:51:47.720Z,10.10
2022-12-26T04:54:16.509Z,9.70
2022-12-26T04:56:44.362Z,10.80
2022-12-26T04:59:12.144Z,9.70
2022-12-26T05:01:59.766Z,10.40
2022-12-26T05:04:46.850Z,10.20
2022-12-26T05:10:01.370Z,10.00
2022-12-26T05:12:29.380Z,9.50
2022-12-26T05:14:57.842Z,10.10
2022-12-26T05:17:44.171Z,10.50
2022-12-26T05:20:31.463Z,9.90
2022-12-26T05:23:19.474Z,10.30
2022-12-26T05:26:06.968Z,10.20
2022-12-26T05:28:44.303Z,10.30
2022-12-26T05:31:16.680Z,9.80
2022-12-26T05:34:03.981Z,10.30
2022-12-26T05:36:35.299Z,10.10
2022-12-26T05:39:04.332Z,10.50
2022-12-26T05:41:32.334Z,10.40
2022-12-26T05:44:00.770Z,10.50
2022-12-26T05:46:28.813Z,10.30
2022-12-26T05:48:57.279Z,9.40
2022-12-26T05:51:25.701Z,9.60
2022-12-26T05:53:53.667Z,9.90
2022-12-26T05:56:21.933Z,9.60
2022-12-26T05:58:57.921Z,9.10
2022-12-26T06:01:27.721Z,9.90
2022-12-26T06:03:56.983Z,10.00
2022-12-26T06:06:25.503Z,9.40
2022-12-26T06:08:54.306Z,9.50
2022-12-26T06:11:22.760Z,9.40
2022-12-26T06:13:50.688Z,9.80
2022-12-26T06:16:19.211Z,8.90
2022-12-26T06:18:48.760Z,9.40
2022-12-26T06:21:18.246Z,9.70
2022-12-26T06:23:46.598Z,9.40
2022-12-26T06:26:15.995Z,9.20
2022-12-26T06:28:44.579Z,9.30
2022-12-26T06:31:18.221Z,8.50
2022-12-26T06:33:46.664Z,8.80
2022-12-26T06:36:15.596Z,9.00
2022-12-26T06:38:43.875Z,8.10
2022-12-26T06:41:13.262Z,8.40
2022-12-26T06:43:41.871Z,8.30
2022-12-26T06:46:13.416Z,9.40
2022-12-26T06:48:41.438Z,8.40
2022-12-26T06:51:10.967Z,8.30
2022-12-26T06:53:39.838Z,8.10
2022-12-26T06:56:09.681Z,7.90
2022-12-26T06:58:37.929Z,8.30
2022-12-26T07:01:06.483Z,8.50
2022-12-26T07:03:34.784Z,8.80
2022-12-26T07:06:04.560Z,8.50
2022-12-26T07:08:33.266Z,8.20
2022-12-26T07:11:01.059Z,8.40
2022-12-26T07:13:28.993Z,8.70
2022-12-26T07:16:00.588Z,9.10
2022-12-26T07:18:28.865Z,8.80
2022-12-26T07:20:57.356Z,8.40
2022-12-26T07:23:25.586Z,8.80
2022-12-26T07:25:53.554Z,8.80
2022-12-26T07:28:21.518Z,8.40
2022-12-26T07:30:50.211Z,7.90
2022-12-26T07:33:18.693Z,8.00
2022-12-26T07:35:46.979Z,8.10
2022-12-26T07:38:15.127Z,8.50
2022-12-26T07:40:43.427Z,8.00
2022-12-26T07:43:11.510Z,7.30
2022-12-26T07:45:45.382Z,7.70
2022-12-26T07:48:14.475Z,8.50
2022-12-26T07:50:47.501Z,7.20
2022-12-26T07:53:15.941Z,8.20
2022-12-26T07:55:44.017Z,7.60
2022-12-26T07:58:12.086Z,8.00
2022-12-26T08:00:40.228Z,8.10
2022-12-26T08:03:09.381Z,7.60
2022-12-26T08:05:37.729Z,7.30
2022-12-26T08:08:05.683Z,6.80
2022-12-26T08:10:33.887Z,7.50
2022-12-26T08:13:02.043Z,6.80
2022-12-26T08:15:30.578Z,6.70
2022-12-26T08:17:59.726Z,6.30
2022-12-26T08:20:29.242Z,6.90
2022-12-26T08:22:59.848Z,6.70
2022-12-26T08:25:31.013Z,7.10
2022-12-26T08:28:01.437Z,7.30
2022-12-26T08:30:29.930Z,6.50
2022-12-26T08:32:58.393Z,6.10
2022-12-26T08:35:27.093Z,6.40
2022-12-26T08:37:55.546Z,6.20
2022-12-26T08:40:42.119Z,7.30
2022-12-26T08:43:32.026Z,6.60
2022-12-26T08:46:11.176Z,7.10
2022-12-26T08:48:41.809Z,6.30
2022-12-26T08:51:13.153Z,6.40
2022-12-26T08:53:46.680Z,6.80
2022-12-26T08:56:20.264Z,6.90
2022-12-26T08:58:50.868Z,6.30
2022-12-26T09:01:22.837Z,5.90
2022-12-26T09:03:54.691Z,6.20
2022-12-26T09:06:23.916Z,5.90
2022-12-26T09:08:52.675Z,6.10
2022-12-26T09:11:22.078Z,5.50
2022-12-26T09:13:50.067Z,6.30
2022-12-26T09:16:19.390Z,6.00
2022-12-26T09:18:47.933Z,5.70
2022-12-26T09:21:16.414Z,5.10
2022-12-26T09:23:44.991Z,4.50
2022-12-26T09:26:14.596Z,4.60
2022-12-26T09:28:43.458Z,4.50
2022-12-26T09:31:13.036Z,5.20
2022-12-26T09:33:42.493Z,4.80
2022-12-26T09:36:14.798Z,4.60
2022-12-26T09:38:44.660Z,4.30
2022-12-26T09:41:21.677Z,4.00
2022-12-26T09:44:08.610Z,4.40
2022-12-26T09:46:52.333Z,4.10
2022-12-26T09:49:26.065Z,3.80
2022-12-26T09:51:58.998Z,4.20
2022-12-26T09:54:33.500Z,4.00
2022-12-26T09:57:04.565Z,3.60
2022-12-26T09:59:36.612Z,3.80
2022-12-26T10:02:04.802Z,3.70
2022-12-26T10:04:32.914Z,3.40
2022-12-26T10:07:34.530Z,3.80
2022-12-26T10:10:10.687Z,3.60
2022-12-26T10:12:42.867Z,3.20
2022-12-26T10:15:15.233Z,3.80
2022-12-26T10:17:58.350Z,3.70
2022-12-26T10:20:26.414Z,3.70
2022-12-26T10:23:03.399Z,3.20
2022-12-26T10:25:37.431Z,3.50
2022-12-26T10:28:06.918Z,3.40
2022-12-26T10:30:37.675Z,3.50
2022-12-26T10:33:10.317Z,3.60
2022-12-26T10:35:42.791Z,3.20
2022-12-26T10:38:14.642Z,3.70
2022-12-26T10:40:43.817Z,3.60
2022-12-26T10:43:20.644Z,3.10
2022-12-26T10:46:27.606Z,2.90
2022-12-26T10:48:57.250Z,3.20
2022-12-26T10:51:26.312Z,3.60
2022-12-26T10:53:54.789Z,3.30
2022-12-26T10:56:25.323Z,3.30
2022-12-26T10:59:00.659Z,2.90
2022-12-26T11:01:31.426Z,3.10
2022-12-26T11:04:00.494Z,3.20
2022-12-26T11:06:34.083Z,3.20
2022-12-26T11:09:02.306Z,3.90
2022-12-26T11:11:46.286Z,4.00
2022-12-26T11:14:33.755Z,3.50
2022-12-26T11:17:13.678Z,3.50
2022-12-26T11:19:43.334Z,2.90
2022-12-26T11:22:28.353Z,3.00
2022-12-26T11:25:12.357Z,3.40
2022-12-26T11:27:42.309Z,3.00
2022-12-26T11:30:15.301Z,3.10
2022-12-26T11:32:44.772Z,3.00
2022-12-26T11:35:24.038Z,2.90
2022-12-26T11:37:56.206Z,3.20
2022-12-26T11:40:28.985Z,3.10
2022-12-26T11:42:58.598Z,3.00
2022-12-26T11:45:31.678Z,3.40
2022-12-26T11:48:02.377Z,3.40
2022-12-26T11:50:31.822Z,3.70
2022-12-26T11:53:00.000Z,3.50
2022-12-26T11:55:33.722Z,3.50
2022-12-26T11:58:21.790Z,3.20
2022-12-26T12:00:49.820Z,3.00
2022-12-26T12:03:20.962Z,3.40
2022-12-26T12:05:49.117Z,3.90
2022-12-26T12:08:30.811Z,3.20
2022-12-26T12:11:18.040Z,3.30
2022-12-26T12:14:02.983Z,3.00
2022-12-26T12:16:41.560Z,3.60
2022-12-26T12:19:18.863Z,2.80
2022-12-26T12:21:59.480Z,2.80
2022-12-26T12:24:46.254Z,2.60
2022-12-26T12:29:51.403Z,2.80
2022-12-26T12:32:31.794Z,2.90
2022-12-26T12:35:00.019Z,2.70
2022-12-26T12:37:41.564Z,3.10
2022-12-26T12:40:45.810Z,3.00
2022-12-26T12:43:20.190Z,3.00
2022-12-26T12:46:07.443Z,3.70
2022-12-26T12:48:59.580Z,3.50
2022-12-26T12:51:41.734Z,3.50
2022-12-26T12:54:39.290Z,3.30
2022-12-26T12:57:27.642Z,3.10
2022-12-26T13:00:04.515Z,3.00
2022-12-26T13:02:38.627Z,2.40
2022-12-26T13:05:12.730Z,2.80
2022-12-26T13:07:47.445Z,3.20
2022-12-26T13:10:25.463Z,2.70
2022-12-26T13:12:55.092Z,3.10
2022-12-26T13:15:35.231Z,3.00
2022-12-26T13:18:06.073Z,3.10
2022-12-26T13:21:03.381Z,2.50
2022-12-26T13:24:10.752Z,3.10
2022-12-26T13:26:41.749Z,3.00
2022-12-26T13:29:24.665Z,2.70
2022-12-26T13:31:55.468Z,2.80
2022-12-26T13:34:23.541Z,2.80
2022-12-26T13:36:55.260Z,3.30
2022-12-26T13:39:24.022Z,2.70
2022-12-26T13:42:20.434Z,2.70
2022-12-26T13:44:53.702Z,2.20
2022-12-26T13:47:50.943Z,2.60
2022-12-26T13:50:37.715Z,3.00
2022-12-26T13:53:25.060Z,2.90
2022-12-26T13:55:56.173Z,2.90
2022-12-26T13:58:27.535Z,3.20
2022-12-26T14:01:27.628Z,3.10
2022-12-26T14:04:18.616Z,3.40
2022-12-26T14:07:05.454Z,3.00
2022-12-26T14:09:36.437Z,2.90
2022-12-26T14:12:13.547Z,2.70
2022-12-26T14:14:56.493Z,2.80
2022-12-26T14:17:24.384Z,2.80
2022-12-26T14:19:53.045Z,2.70
2022-12-26T14:22:24.668Z,2.90
2022-12-26T14:24:55.769Z,2.70
2022-12-26T14:27:26.494Z,3.00
2022-12-26T14:29:57.529Z,3.20
2022-12-26T14:32:44.428Z,3.20
2022-12-26T14:37:48.001Z,2.70
2022-12-26T14:40:19.184Z,3.00
2022-12-26T14:43:25.659Z,3.00
2022-12-26T14:48:22.113Z,2.60
2022-12-26T14:50:51.609Z,2.70
2022-12-26T14:53:28.996Z,3.10
2022-12-26T14:56:12.121Z,2.80
2022-12-26T14:58:40.181Z,2.80
2022-12-26T15:01:15.918Z,2.80
2022-12-26T15:04:02.564Z,2.50
2022-12-26T15:06:42.602Z,2.70
2022-12-26T15:09:23.965Z,6.00
2022-12-26T15:12:10.967Z,3.00
2022-12-26T15:14:38.871Z,3.10
2022-12-26T15:17:06.896Z,3.00
2022-12-26T15:19:49.752Z,3.10
2022-12-26T15:22:32.971Z,4.00
2022-12-26T15:25:21.287Z,4.10
2022-12-26T15:27:56.692Z,3.20
2022-12-26T15:30:32.544Z,3.10
2022-12-26T15:33:10.230Z,2.70
2022-12-26T15:36:03.919Z,3.40
2022-12-26T15:38:43.723Z,3.10
2022-12-26T15:41:11.802Z,3.30
2022-12-26T15:43:39.772Z,3.20
2022-12-26T15:46:37.054Z,3.10
2022-12-26T15:49:27.118Z,2.90
2022-12-26T15:52:17.179Z,2.90
2022-12-26T15:54:55.833Z,2.60
2022-12-26T15:57:23.882Z,3.10
2022-12-26T16:00:08.010Z,3.20
2022-12-26T16:02:40.444Z,4.50
2022-12-26T16:05:13.404Z,3.70
2022-12-26T16:08:04.395Z,3.50
2022-12-26T16:10:33.800Z,3.90
2022-12-26T16:13:15.058Z,3.80
2022-12-26T16:15:48.504Z,3.60
2022-12-26T16:18:21.669Z,3.20
2022-12-26T16:21:10.830Z,3.00
2022-12-26T16:23:41.057Z,3.20
2022-12-26T16:26:23.045Z,3.70
2022-12-26T16:28:51.764Z,4.10
2022-12-26T16:31:21.528Z,4.20
2022-12-26T16:33:51.381Z,3.40
2022-12-26T16:36:21.113Z,4.30
2022-12-26T16:38:50.069Z,4.30
2022-12-26T16:41:20.568Z,4.10
2022-12-26T16:43:49.839Z,4.00
2022-12-26T16:46:19.718Z,5.00
2022-12-26T16:48:53.468Z,3.80
2022-12-26T16:51:45.016Z,4.50
2022-12-26T16:54:23.057Z,6.70
2022-12-26T16:56:53.159Z,5.10
2022-12-26T16:59:23.261Z,4.50
2022-12-26T17:01:55.955Z,4.30
2022-12-26T17:04:25.242Z,3.70
2022-12-26T17:06:54.708Z,4.00
2022-12-26T17:09:24.120Z,3.50
2022-12-26T17:11:57.549Z,3.70
2022-12-26T17:14:31.470Z,4.30
2022-12-26T17:17:00.746Z,4.80
2022-12-26T17:19:32.068Z,3.80
2022-12-26T17:22:15.629Z,4.30
2022-12-26T17:24:45.217Z,4.20
2022-12-26T17:27:16.811Z,4.10
2022-12-26T17:29:51.273Z,6.80
2022-12-26T17:32:26.740Z,7.20
2022-12-26T17:34:55.745Z,6.10
2022-12-26T17:37:25.164Z,6.40
2022-12-26T17:40:08.598Z,6.30
2022-12-26T17:42:40.695Z,5.60
2022-12-26T17:45:14.757Z,4.90
2022-12-26T17:47:43.266Z,5.20
2022-12-26T17:50:12.663Z,4.40
2022-12-26T17:52:42.287Z,5.00
2022-12-26T17:55:15.574Z,6.30
2022-12-26T17:57:44.633Z,6.50
2022-12-26T18:00:18.187Z,5.80
2022-12-26T18:02:46.650Z,5.60
2022-12-26T18:05:15.692Z,5.00
2022-12-26T18:07:44.877Z,4.30
2022-12-26T18:10:21.465Z,5.50
2022-12-26T18:12:50.292Z,4.20
2022-12-26T18:15:19.499Z,5.50
2022-12-26T18:17:48.757Z,6.00
2022-12-26T18:20:18.170Z,4.70
2022-12-26T18:22:48.312Z,6.20
2022-12-26T18:25:19.954Z,7.60
2022-12-26T18:27:48.932Z,5.90
2022-12-26T18:30:19.398Z,8.90
2022-12-26T18:32:48.991Z,7.70
2022-12-26T18:35:18.863Z,12.20
2022-12-26T18:37:51.369Z,6.70
2022-12-26T18:40:23.187Z,6.70
2022-12-26T18:42:51.683Z,10.20
2022-12-26T18:45:19.936Z,5.50
2022-12-26T18:47:48.349Z,5.20
2022-12-26T18:50:16.705Z,7.40
2022-12-26T18:52:49.972Z,5.00
2022-12-26T18:55:25.550Z,5.50
2022-12-26T18:57:53.992Z,3.80
2022-12-26T19:00:23.635Z,4.00
2022-12-26T19:02:52.992Z,4.10
2022-12-26T19:05:27.819Z,4.90
2022-12-26T19:07:56.142Z,4.50
2022-12-26T19:10:25.448Z,4.50
2022-12-26T19:12:57.385Z,7.40
2022-12-26T19:15:30.602Z,7.80
2022-12-26T19:17:58.562Z,8.70
2022-12-26T19:20:27.792Z,7.10
2022-12-26T19:22:58.039Z,7.10
2022-12-26T19:25:28.131Z,7.60
2022-12-26T19:27:59.080Z,8.80
2022-12-26T19:30:32.372Z,8.20
2022-12-26T19:33:07.605Z,8.10
2022-12-26T19:35:37.071Z,6.20
2022-12-26T19:38:07.096Z,7.60
2022-12-26T19:40:37.057Z,6.50
2022-12-26T19:43:09.175Z,6.40
2022-12-26T19:45:42.575Z,21.90
2022-12-26T19:48:13.186Z,13.10
2022-12-26T19:50:42.694Z,7.70
2022-12-26T19:53:12.043Z,10.30
2022-12-26T19:55:41.952Z,8.00
2022-12-26T19:58:11.434Z,8.80
2022-12-26T20:00:41.437Z,9.10
2022-12-26T20:03:11.127Z,8.30
2022-12-26T20:05:43.542Z,7.90
2022-12-26T20:08:13.936Z,11.70
2022-12-26T20:10:43.131Z,10.80
2022-12-26T20:13:12.632Z,12.50
2022-12-26T20:15:42.250Z,10.10
2022-12-26T20:18:14.958Z,7.30
2022-12-26T20:20:52.328Z,7.70
2022-12-26T20:23:23.710Z,6.60
2022-12-26T20:25:53.388Z,6.20
2022-12-26T20:28:24.015Z,4.00
2022-12-26T20:31:00.729Z,10.80
2022-12-26T20:33:31.167Z,4.20
2022-12-26T20:36:12.361Z,5.00
2022-12-26T20:38:42.588Z,4.70
2022-12-26T20:41:11.905Z,5.40
2022-12-26T20:43:41.735Z,5.40
2022-12-26T20:46:22.633Z,7.50
2022-12-26T20:48:53.438Z,6.80
2022-12-26T20:51:24.782Z,5.90
2022-12-26T20:53:55.167Z,4.80
2022-12-26T20:56:24.810Z,4.40
2022-12-26T20:58:53.996Z,4.40
2022-12-26T21:01:23.459Z,4.10
2022-12-26T21:03:53.905Z,4.20
2022-12-26T21:06:23.548Z,4.10
2022-12-26T21:08:53.489Z,4.40
2022-12-26T21:11:21.822Z,4.00
2022-12-26T21:13:52.140Z,4.20
2022-12-26T21:16:32.027Z,4.00
2022-12-26T21:19:01.735Z,4.30
2022-12-26T21:21:35.098Z,3.70
2022-12-26T21:24:05.915Z,4.30
2022-12-26T21:26:39.745Z,4.40
2022-12-26T21:29:11.393Z,4.50
2022-12-26T21:31:41.216Z,4.10
2022-12-26T21:34:13.689Z,4.30
2022-12-26T21:37:03.146Z,4.20
2022-12-26T21:39:32.245Z,4.20
2022-12-26T21:42:02.278Z,4.20
2022-12-26T21:44:33.706Z,3.60
2022-12-26T21:47:05.653Z,4.30
2022-12-26T21:49:35.120Z,4.30
2022-12-26T21:52:04.531Z,4.30
2022-12-26T21:54:53.082Z,4.40
2022-12-26T21:57:26.541Z,4.30
2022-12-26T22:00:00.080Z,4.50
2022-12-26T22:02:53.161Z,4.40
2022-12-26T22:05:30.610Z,4.20
2022-12-26T22:08:02.845Z,4.30
2022-12-26T22:10:52.166Z,4.40
2022-12-26T22:13:22.604Z,4.40
2022-12-26T22:16:08.062Z,4.60
2022-12-26T22:18:39.707Z,4.40
2022-12-26T22:21:10.161Z,5.10
2022-12-26T22:23:40.829Z,4.10
2022-12-26T22:26:12.582Z,3.60
2022-12-26T22:28:42.826Z,3.50
2022-12-26T22:31:22.711Z,2.70
2022-12-26T22:33:55.422Z,2.20
2022-12-26T22:36:25.685Z,2.20
2022-12-26T22:38:54.944Z,1.90
2022-12-26T22:41:24.129Z,2.00
2022-12-26T22:43:53.355Z,1.90
2022-12-26T22:46:22.244Z,1.60
2022-12-26T22:48:53.967Z,1.70
2022-12-26T22:51:23.638Z,1.40
2022-12-26T22:53:54.457Z,1.70
2022-12-26T22:56:23.853Z,1.40
2022-12-26T22:58:54.310Z,1.50
2022-12-26T23:01:22.941Z,1.40
2022-12-26T23:03:52.271Z,1.30
2022-12-26T23:06:25.559Z,1.50
2022-12-26T23:08:58.187Z,1.20
2022-12-26T23:11:34.443Z,1.30
2022-12-26T23:14:08.430Z,1.30
2022-12-26T23:16:40.853Z,1.80
2022-12-26T23:19:51.960Z,2.00
2022-12-26T23:22:20.724Z,1.80
2022-12-26T23:24:49.644Z,1.40
2022-12-26T23:27:37.885Z,1.60
2022-12-26T23:30:19.242Z,1.40
2022-12-26T23:32:51.359Z,1.20
2022-12-26T23:35:20.545Z,1.50
2022-12-26T23:37:49.599Z,1.10
2022-12-26T23:40:19.122Z,1.40
2022-12-26T23:42:47.581Z,1.30
2022-12-26T23:45:16.993Z,1.30
2022-12-26T23:47:47.007Z,1.60
2022-12-26T23:50:16.562Z,1.70
2022-12-26T23:52:45.140Z,1.60
2022-12-26T23:55:13.685Z,1.90
2022-12-26T23:57:42.849Z,2.00
